sensor_id;sensor_type;location;lat;lon;timestamp;P1;durP1;ratioP1;P2;durP2;ratioP2
16593;SDS011;8410;52.532;13.336;2024-03-02T00:00:33;51.53;;;42.13;;
16593;SDS011;8410;52.532;13.336;2024-03-02T00:03:00;48.20;;;38.30;;
16593;SDS011;8410;52.532;13.336;2024-03-02T00:05:28;56.33;;;42.53;;
16593;SDS011;8410;52.532;13.336;2024-03-02T00:07:57;69.23;;;53.93;;
16593;SDS011;8410;52.532;13.336;2024-03-02T00:10:26;51.47;;;40.27;;
16593;SDS011;8410;52.532;13.336;2024-03-02T00:13:01;56.40;;;42.27;;
16593;SDS011;8410;52.532;13.336;2024-03-02T00:18:16;56.10;;;41.60;;
16593;SDS011;8410;52.532;13.336;2024-03-02T00:20:46;55.70;;;43.33;;
16593;SDS011;8410;52.532;13.336;2024-03-02T00:23:16;58.60;;;44.07;;
16593;SDS011;8410;52.532;13.336;2024-03-02T00:25:45;58.80;;;43.93;;
16593;SDS011;8410;52.532;13.336;2024-03-02T00:28:16;62.10;;;44.87;;
16593;SDS011;8410;52.532;13.336;2024-03-02T00:30:51;56.17;;;43.27;;
16593;SDS011;8410;52.532;13.336;2024-03-02T00:33:21;58.63;;;44.73;;
16593;SDS011;8410;52.532;13.336;2024-03-02T00:35:49;57.03;;;44.77;;
16593;SDS011;8410;52.532;13.336;2024-03-02T00:38:19;59.73;;;43.50;;
16593;SDS011;8410;52.532;13.336;2024-03-02T00:40:46;49.07;;;40.53;;
16593;SDS011;8410;52.532;13.336;2024-03-02T00:43:24;49.50;;;39.70;;
16593;SDS011;8410;52.532;13.336;2024-03-02T00:46:17;57.27;;;41.17;;
16593;SDS011;8410;52.532;13.336;2024-03-02T00:48:47;54.73;;;38.97;;
16593;SDS011;8410;52.532;13.336;2024-03-02T00:51:18;54.13;;;41.40;;
16593;SDS011;8410;52.532;13.336;2024-03-02T00:53:47;55.77;;;42.60;;
16593;SDS011;8410;52.532;13.336;2024-03-02T00:56:15;53.67;;;42.40;;
16593;SDS011;8410;52.532;13.336;2024-03-02T00:58:43;53.63;;;42.53;;
16593;SDS011;8410;52.532;13.336;2024-03-02T01:01:11;66.50;;;48.73;;
16593;SDS011;8410;52.532;13.336;2024-03-02T01:03:38;62.87;;;43.57;;
16593;SDS011;8410;52.532;13.336;2024-03-02T01:06:07;54.80;;;42.33;;
16593;SDS011;8410;52.532;13.336;2024-03-02T01:08:35;56.03;;;44.23;;
16593;SDS011;8410;52.532;13.336;2024-03-02T01:11:04;56.40;;;41.97;;
16593;SDS011;8410;52.532;13.336;2024-03-02T01:13:32;55.83;;;43.17;;
16593;SDS011;8410;52.532;13.336;2024-03-02T01:16:00;56.83;;;43.13;;
16593;SDS011;8410;52.532;13.336;2024-03-02T01:18:28;60.93;;;44.37;;
16593;SDS011;8410;52.532;13.336;2024-03-02T01:20:56;55.00;;;42.57;;
16593;SDS011;8410;52.532;13.336;2024-03-02T01:23:24;58.53;;;43.80;;
16593;SDS011;8410;52.532;13.336;2024-03-02T01:25:52;58.23;;;44.10;;
16593;SDS011;8410;52.532;13.336;2024-03-02T01:28:21;59.47;;;45.37;;
16593;SDS011;8410;52.532;13.336;2024-03-02T01:30:48;71.67;;;52.73;;
16593;SDS011;8410;52.532;13.336;2024-03-02T01:33:16;59.07;;;46.43;;
16593;SDS011;8410;52.532;13.336;2024-03-02T01:35:44;63.90;;;48.77;;
16593;SDS011;8410;52.532;13.336;2024-03-02T01:38:12;63.87;;;45.47;;
16593;SDS011;8410;52.532;13.336;2024-03-02T01:40:39;65.30;;;50.40;;
16593;SDS011;8410;52.532;13.336;2024-03-02T01:43:07;63.80;;;46.73;;
16593;SDS011;8410;52.532;13.336;2024-03-02T01:45:36;64.30;;;50.40;;
16593;SDS011;8410;52.532;13.336;2024-03-02T01:48:04;69.83;;;52.60;;
16593;SDS011;8410;52.532;13.336;2024-03-02T01:50:33;65.93;;;50.43;;
16593;SDS011;8410;52.532;13.336;2024-03-02T01:53:01;61.47;;;48.97;;
16593;SDS011;8410;52.532;13.336;2024-03-02T01:55:29;59.53;;;47.57;;
16593;SDS011;8410;52.532;13.336;2024-03-02T01:57:57;68.53;;;54.47;;
16593;SDS011;8410;52.532;13.336;2024-03-02T02:00:25;65.70;;;50.73;;
16593;SDS011;8410;52.532;13.336;2024-03-02T02:02:55;62.20;;;50.23;;
16593;SDS011;8410;52.532;13.336;2024-03-02T02:05:24;59.57;;;45.83;;
16593;SDS011;8410;52.532;13.336;2024-03-02T02:07:51;68.40;;;51.43;;
16593;SDS011;8410;52.532;13.336;2024-03-02T02:10:19;64.43;;;47.10;;
16593;SDS011;8410;52.532;13.336;2024-03-02T02:12:46;66.37;;;51.17;;
16593;SDS011;8410;52.532;13.336;2024-03-02T02:15:26;64.70;;;49.37;;
16593;SDS011;8410;52.532;13.336;2024-03-02T02:17:56;62.00;;;49.77;;
16593;SDS011;8410;52.532;13.336;2024-03-02T02:20:24;68.63;;;51.57;;
16593;SDS011;8410;52.532;13.336;2024-03-02T02:22:57;69.97;;;55.43;;
16593;SDS011;8410;52.532;13.336;2024-03-02T02:25:25;75.60;;;59.37;;
16593;SDS011;8410;52.532;13.336;2024-03-02T02:27:53;72.47;;;55.60;;
16593;SDS011;8410;52.532;13.336;2024-03-02T02:30:22;73.33;;;54.80;;
16593;SDS011;8410;52.532;13.336;2024-03-02T02:32:51;67.07;;;50.03;;
16593;SDS011;8410;52.532;13.336;2024-03-02T02:35:19;68.23;;;50.93;;
16593;SDS011;8410;52.532;13.336;2024-03-02T02:37:46;70.03;;;52.00;;
16593;SDS011;8410;52.532;13.336;2024-03-02T02:40:17;63.30;;;53.60;;
16593;SDS011;8410;52.532;13.336;2024-03-02T02:42:45;67.50;;;53.37;;
16593;SDS011;8410;52.532;13.336;2024-03-02T02:45:13;84.77;;;66.67;;
16593;SDS011;8410;52.532;13.336;2024-03-02T02:47:41;69.67;;;50.07;;
16593;SDS011;8410;52.532;13.336;2024-03-02T02:50:09;65.17;;;51.47;;
16593;SDS011;8410;52.532;13.336;2024-03-02T02:52:38;72.93;;;53.07;;
16593;SDS011;8410;52.532;13.336;2024-03-02T02:55:08;65.80;;;53.10;;
16593;SDS011;8410;52.532;13.336;2024-03-02T02:57:38;71.77;;;54.67;;
16593;SDS011;8410;52.532;13.336;2024-03-02T03:00:09;69.17;;;54.20;;
16593;SDS011;8410;52.532;13.336;2024-03-02T03:02:40;68.67;;;52.30;;
16593;SDS011;8410;52.532;13.336;2024-03-02T03:05:09;65.73;;;52.00;;
16593;SDS011;8410;52.532;13.336;2024-03-02T03:07:38;62.47;;;51.10;;
16593;SDS011;8410;52.532;13.336;2024-03-02T03:10:07;68.37;;;51.40;;
16593;SDS011;8410;52.532;13.336;2024-03-02T03:12:35;64.77;;;51.20;;
16593;SDS011;8410;52.532;13.336;2024-03-02T03:15:05;63.90;;;50.93;;
16593;SDS011;8410;52.532;13.336;2024-03-02T03:17:33;70.10;;;51.37;;
16593;SDS011;8410;52.532;13.336;2024-03-02T03:20:01;66.93;;;52.47;;
16593;SDS011;8410;52.532;13.336;2024-03-02T03:22:30;64.50;;;51.43;;
16593;SDS011;8410;52.532;13.336;2024-03-02T03:24:58;67.23;;;51.97;;
16593;SDS011;8410;52.532;13.336;2024-03-02T03:27:26;66.50;;;50.97;;
16593;SDS011;8410;52.532;13.336;2024-03-02T03:29:54;66.10;;;52.83;;
16593;SDS011;8410;52.532;13.336;2024-03-02T03:32:23;64.33;;;52.70;;
16593;SDS011;8410;52.532;13.336;2024-03-02T03:34:51;67.70;;;51.80;;
16593;SDS011;8410;52.532;13.336;2024-03-02T03:37:18;63.50;;;48.63;;
16593;SDS011;8410;52.532;13.336;2024-03-02T03:39:46;62.30;;;51.37;;
16593;SDS011;8410;52.532;13.336;2024-03-02T03:42:13;66.50;;;51.20;;
16593;SDS011;8410;52.532;13.336;2024-03-02T03:44:41;60.67;;;50.30;;
16593;SDS011;8410;52.532;13.336;2024-03-02T03:47:08;55.63;;;45.53;;
16593;SDS011;8410;52.532;13.336;2024-03-02T03:49:37;55.77;;;44.40;;
16593;SDS011;8410;52.532;13.336;2024-03-02T03:52:05;60.03;;;47.83;;
16593;SDS011;8410;52.532;13.336;2024-03-02T03:54:32;56.97;;;46.57;;
16593;SDS011;8410;52.532;13.336;2024-03-02T03:57:00;59.40;;;46.93;;
16593;SDS011;8410;52.532;13.336;2024-03-02T03:59:27;59.37;;;44.63;;
16593;SDS011;8410;52.532;13.336;2024-03-02T04:01:55;54.40;;;44.77;;
16593;SDS011;8410;52.532;13.336;2024-03-02T04:04:22;58.33;;;47.33;;
16593;SDS011;8410;52.532;13.336;2024-03-02T04:06:51;60.37;;;50.47;;
16593;SDS011;8410;52.532;13.336;2024-03-02T04:09:19;62.93;;;47.47;;
16593;SDS011;8410;52.532;13.336;2024-03-02T04:11:46;60.23;;;48.07;;
16593;SDS011;8410;52.532;13.336;2024-03-02T04:14:14;56.43;;;46.00;;
16593;SDS011;8410;52.532;13.336;2024-03-02T04:16:41;54.77;;;45.37;;
16593;SDS011;8410;52.532;13.336;2024-03-02T04:19:08;56.67;;;45.50;;
16593;SDS011;8410;52.532;13.336;2024-03-02T04:21:36;52.03;;;46.10;;
16593;SDS011;8410;52.532;13.336;2024-03-02T04:24:05;53.37;;;46.00;;
16593;SDS011;8410;52.532;13.336;2024-03-02T04:26:32;52.10;;;43.97;;
16593;SDS011;8410;52.532;13.336;2024-03-02T04:29:00;55.10;;;46.30;;
16593;SDS011;8410;52.532;13.336;2024-03-02T04:31:28;55.67;;;44.07;;
16593;SDS011;8410;52.532;13.336;2024-03-02T04:33:55;58.33;;;45.10;;
16593;SDS011;8410;52.532;13.336;2024-03-02T04:36:23;52.03;;;43.57;;
16593;SDS011;8410;52.532;13.336;2024-03-02T04:38:50;50.47;;;43.17;;
16593;SDS011;8410;52.532;13.336;2024-03-02T04:41:19;58.17;;;44.17;;
16593;SDS011;8410;52.532;13.336;2024-03-02T04:43:47;53.03;;;42.97;;
16593;SDS011;8410;52.532;13.336;2024-03-02T04:46:14;54.83;;;45.93;;
16593;SDS011;8410;52.532;13.336;2024-03-02T04:48:42;56.33;;;46.17;;
16593;SDS011;8410;52.532;13.336;2024-03-02T04:51:10;50.07;;;43.23;;
16593;SDS011;8410;52.532;13.336;2024-03-02T04:53:37;58.50;;;43.73;;
16593;SDS011;8410;52.532;13.336;2024-03-02T04:56:05;47.90;;;41.50;;
16593;SDS011;8410;52.532;13.336;2024-03-02T04:59:11;49.17;;;41.53;;
16593;SDS011;8410;52.532;13.336;2024-03-02T05:01:38;50.57;;;43.57;;
16593;SDS011;8410;52.532;13.336;2024-03-02T05:04:06;48.77;;;40.43;;
16593;SDS011;8410;52.532;13.336;2024-03-02T05:06:34;51.53;;;43.47;;
16593;SDS011;8410;52.532;13.336;2024-03-02T05:09:01;45.97;;;40.97;;
16593;SDS011;8410;52.532;13.336;2024-03-02T05:11:29;49.93;;;41.57;;
16593;SDS011;8410;52.532;13.336;2024-03-02T05:14:16;46.97;;;40.43;;
16593;SDS011;8410;52.532;13.336;2024-03-02T05:16:43;47.50;;;42.23;;
16593;SDS011;8410;52.532;13.336;2024-03-02T05:19:11;49.47;;;42.10;;
16593;SDS011;8410;52.532;13.336;2024-03-02T05:21:38;49.50;;;41.77;;
16593;SDS011;8410;52.532;13.336;2024-03-02T05:24:06;48.50;;;41.33;;
16593;SDS011;8410;52.532;13.336;2024-03-02T05:26:34;47.80;;;42.37;;
16593;SDS011;8410;52.532;13.336;2024-03-02T05:29:01;51.93;;;44.23;;
16593;SDS011;8410;52.532;13.336;2024-03-02T05:31:30;50.50;;;43.77;;
16593;SDS011;8410;52.532;13.336;2024-03-02T05:33:57;50.50;;;45.00;;
16593;SDS011;8410;52.532;13.336;2024-03-02T05:36:25;54.27;;;45.37;;
16593;SDS011;8410;52.532;13.336;2024-03-02T05:38:53;50.77;;;44.53;;
16593;SDS011;8410;52.532;13.336;2024-03-02T05:41:20;53.90;;;45.67;;
16593;SDS011;8410;52.532;13.336;2024-03-02T05:43:48;51.90;;;44.50;;
16593;SDS011;8410;52.532;13.336;2024-03-02T05:46:16;57.33;;;46.17;;
16593;SDS011;8410;52.532;13.336;2024-03-02T05:48:44;59.13;;;48.13;;
16593;SDS011;8410;52.532;13.336;2024-03-02T05:51:12;56.07;;;46.97;;
16593;SDS011;8410;52.532;13.336;2024-03-02T05:53:40;61.47;;;49.23;;
16593;SDS011;8410;52.532;13.336;2024-03-02T05:56:08;61.90;;;49.53;;
16593;SDS011;8410;52.532;13.336;2024-03-02T05:58:35;65.90;;;50.30;;
16593;SDS011;8410;52.532;13.336;2024-03-02T06:01:15;55.60;;;45.67;;
16593;SDS011;8410;52.532;13.336;2024-03-02T06:03:46;66.40;;;49.33;;
16593;SDS011;8410;52.532;13.336;2024-03-02T06:06:13;60.53;;;48.43;;
16593;SDS011;8410;52.532;13.336;2024-03-02T06:08:41;61.57;;;50.27;;
16593;SDS011;8410;52.532;13.336;2024-03-02T06:11:08;65.87;;;49.10;;
16593;SDS011;8410;52.532;13.336;2024-03-02T06:13:36;65.57;;;49.00;;
16593;SDS011;8410;52.532;13.336;2024-03-02T06:16:04;58.40;;;48.43;;
16593;SDS011;8410;52.532;13.336;2024-03-02T06:18:32;59.90;;;48.67;;
16593;SDS011;8410;52.532;13.336;2024-03-02T06:21:00;61.17;;;49.57;;
16593;SDS011;8410;52.532;13.336;2024-03-02T06:23:28;63.67;;;45.83;;
16593;SDS011;8410;52.532;13.336;2024-03-02T06:25:56;64.33;;;48.57;;
16593;SDS011;8410;52.532;13.336;2024-03-02T06:28:23;53.83;;;42.17;;
16593;SDS011;8410;52.532;13.336;2024-03-02T06:30:51;57.00;;;44.90;;
16593;SDS011;8410;52.532;13.336;2024-03-02T06:33:19;58.37;;;45.67;;
16593;SDS011;8410;52.532;13.336;2024-03-02T06:35:46;64.70;;;48.87;;
16593;SDS011;8410;52.532;13.336;2024-03-02T06:38:16;58.03;;;43.87;;
16593;SDS011;8410;52.532;13.336;2024-03-02T06:40:44;57.40;;;46.23;;
16593;SDS011;8410;52.532;13.336;2024-03-02T06:43:11;65.97;;;47.10;;
16593;SDS011;8410;52.532;13.336;2024-03-02T06:45:39;62.23;;;50.17;;
16593;SDS011;8410;52.532;13.336;2024-03-02T06:48:07;64.17;;;47.70;;
16593;SDS011;8410;52.532;13.336;2024-03-02T06:50:34;66.10;;;48.53;;
16593;SDS011;8410;52.532;13.336;2024-03-02T06:53:02;63.07;;;48.57;;
16593;SDS011;8410;52.532;13.336;2024-03-02T06:55:31;63.70;;;48.60;;
16593;SDS011;8410;52.532;13.336;2024-03-02T06:57:59;60.17;;;47.67;;
16593;SDS011;8410;52.532;13.336;2024-03-02T07:00:27;71.60;;;50.03;;
16593;SDS011;8410;52.532;13.336;2024-03-02T07:02:55;69.47;;;51.70;;
16593;SDS011;8410;52.532;13.336;2024-03-02T07:05:22;72.43;;;51.77;;
16593;SDS011;8410;52.532;13.336;2024-03-02T07:07:50;63.43;;;48.33;;
16593;SDS011;8410;52.532;13.336;2024-03-02T07:10:18;64.70;;;50.03;;
16593;SDS011;8410;52.532;13.336;2024-03-02T07:12:46;64.83;;;49.07;;
16593;SDS011;8410;52.532;13.336;2024-03-02T07:15:14;62.20;;;46.70;;
16593;SDS011;8410;52.532;13.336;2024-03-02T07:18:21;62.83;;;50.33;;
16593;SDS011;8410;52.532;13.336;2024-03-02T07:20:48;66.97;;;49.03;;
16593;SDS011;8410;52.532;13.336;2024-03-02T07:23:16;59.00;;;45.90;;
16593;SDS011;8410;52.532;13.336;2024-03-02T07:25:43;62.80;;;47.70;;
16593;SDS011;8410;52.532;13.336;2024-03-02T07:28:15;57.30;;;45.87;;
16593;SDS011;8410;52.532;13.336;2024-03-02T07:30:43;57.23;;;46.10;;
16593;SDS011;8410;52.532;13.336;2024-03-02T07:33:10;57.27;;;46.80;;
16593;SDS011;8410;52.532;13.336;2024-03-02T07:35:38;59.07;;;45.23;;
16593;SDS011;8410;52.532;13.336;2024-03-02T07:38:05;60.73;;;47.10;;
16593;SDS011;8410;52.532;13.336;2024-03-02T07:40:33;60.43;;;47.87;;
16593;SDS011;8410;52.532;13.336;2024-03-02T07:43:00;60.80;;;46.87;;
16593;SDS011;8410;52.532;13.336;2024-03-02T07:45:29;55.70;;;46.67;;
16593;SDS011;8410;52.532;13.336;2024-03-02T07:47:57;57.27;;;47.47;;
16593;SDS011;8410;52.532;13.336;2024-03-02T07:50:24;59.53;;;46.10;;
16593;SDS011;8410;52.532;13.336;2024-03-02T07:52:52;54.57;;;45.90;;
16593;SDS011;8410;52.532;13.336;2024-03-02T07:55:19;59.63;;;46.53;;
16593;SDS011;8410;52.532;13.336;2024-03-02T07:57:47;57.30;;;45.40;;
16593;SDS011;8410;52.532;13.336;2024-03-02T08:00:14;54.43;;;46.00;;
16593;SDS011;8410;52.532;13.336;2024-03-02T08:02:43;56.93;;;45.57;;
16593;SDS011;8410;52.532;13.336;2024-03-02T08:05:11;58.50;;;45.60;;
16593;SDS011;8410;52.532;13.336;2024-03-02T08:07:39;55.00;;;44.47;;
16593;SDS011;8410;52.532;13.336;2024-03-02T08:10:07;51.70;;;41.67;;
16593;SDS011;8410;52.532;13.336;2024-03-02T08:12:35;54.60;;;41.57;;
16593;SDS011;8410;52.532;13.336;2024-03-02T08:15:03;55.90;;;44.67;;
16593;SDS011;8410;52.532;13.336;2024-03-02T08:17:31;55.37;;;43.93;;
16593;SDS011;8410;52.532;13.336;2024-03-02T08:20:05;52.30;;;43.70;;
16593;SDS011;8410;52.532;13.336;2024-03-02T08:22:34;55.13;;;42.90;;
16593;SDS011;8410;52.532;13.336;2024-03-02T08:25:02;52.90;;;41.83;;
16593;SDS011;8410;52.532;13.336;2024-03-02T08:27:30;55.87;;;43.00;;
16593;SDS011;8410;52.532;13.336;2024-03-02T08:29:58;52.43;;;43.70;;
16593;SDS011;8410;52.532;13.336;2024-03-02T08:32:26;51.97;;;41.70;;
16593;SDS011;8410;52.532;13.336;2024-03-02T08:34:53;49.63;;;39.50;;
16593;SDS011;8410;52.532;13.336;2024-03-02T08:37:22;49.40;;;41.93;;
16593;SDS011;8410;52.532;13.336;2024-03-02T08:39:49;54.17;;;43.77;;
16593;SDS011;8410;52.532;13.336;2024-03-02T08:42:17;49.20;;;38.47;;
16593;SDS011;8410;52.532;13.336;2024-03-02T08:44:44;57.13;;;42.57;;
16593;SDS011;8410;52.532;13.336;2024-03-02T08:47:12;56.50;;;42.80;;
16593;SDS011;8410;52.532;13.336;2024-03-02T08:49:40;53.53;;;43.30;;
16593;SDS011;8410;52.532;13.336;2024-03-02T08:52:07;54.20;;;44.87;;
16593;SDS011;8410;52.532;13.336;2024-03-02T08:54:36;52.87;;;43.70;;
16593;SDS011;8410;52.532;13.336;2024-03-02T08:57:04;53.00;;;43.17;;
16593;SDS011;8410;52.532;13.336;2024-03-02T08:59:33;51.27;;;41.27;;
16593;SDS011;8410;52.532;13.336;2024-03-02T09:02:01;56.47;;;49.03;;
16593;SDS011;8410;52.532;13.336;2024-03-02T09:04:28;76.00;;;67.93;;
16593;SDS011;8410;52.532;13.336;2024-03-02T09:07:00;70.60;;;63.13;;
16593;SDS011;8410;52.532;13.336;2024-03-02T09:09:28;71.30;;;63.70;;
16593;SDS011;8410;52.532;13.336;2024-03-02T09:11:59;49.67;;;44.33;;
16593;SDS011;8410;52.532;13.336;2024-03-02T09:14:27;52.77;;;47.03;;
16593;SDS011;8410;52.532;13.336;2024-03-02T09:16:54;47.30;;;40.67;;
16593;SDS011;8410;52.532;13.336;2024-03-02T09:19:22;44.60;;;39.60;;
16593;SDS011;8410;52.532;13.336;2024-03-02T09:21:49;43.17;;;38.03;;
16593;SDS011;8410;52.532;13.336;2024-03-02T09:24:17;41.10;;;36.60;;
16593;SDS011;8410;52.532;13.336;2024-03-02T09:26:45;39.53;;;33.03;;
16593;SDS011;8410;52.532;13.336;2024-03-02T09:29:14;37.60;;;33.77;;
16593;SDS011;8410;52.532;13.336;2024-03-02T09:31:41;39.23;;;35.07;;
16593;SDS011;8410;52.532;13.336;2024-03-02T09:34:09;34.60;;;31.00;;
16593;SDS011;8410;52.532;13.336;2024-03-02T09:36:37;37.23;;;33.40;;
16593;SDS011;8410;52.532;13.336;2024-03-02T09:39:05;35.57;;;31.87;;
16593;SDS011;8410;52.532;13.336;2024-03-02T09:41:36;32.70;;;28.63;;
16593;SDS011;8410;52.532;13.336;2024-03-02T09:44:03;38.57;;;32.03;;
16593;SDS011;8410;52.532;13.336;2024-03-02T09:46:33;30.77;;;27.53;;
16593;SDS011;8410;52.532;13.336;2024-03-02T09:49:02;30.30;;;27.03;;
16593;SDS011;8410;52.532;13.336;2024-03-02T09:51:30;40.57;;;32.07;;
16593;SDS011;8410;52.532;13.336;2024-03-02T09:53:58;30.60;;;27.37;;
16593;SDS011;8410;52.532;13.336;2024-03-02T09:56:43;35.17;;;30.63;;
16593;SDS011;8410;52.532;13.336;2024-03-02T09:59:11;33.60;;;29.70;;
16593;SDS011;8410;52.532;13.336;2024-03-02T10:01:41;31.23;;;26.43;;
16593;SDS011;8410;52.532;13.336;2024-03-02T10:04:23;27.47;;;24.57;;
16593;SDS011;8410;52.532;13.336;2024-03-02T10:06:55;26.70;;;24.03;;
16593;SDS011;8410;52.532;13.336;2024-03-02T10:09:37;35.50;;;31.47;;
16593;SDS011;8410;52.532;13.336;2024-03-02T10:12:06;35.70;;;30.30;;
16593;SDS011;8410;52.532;13.336;2024-03-02T10:14:34;32.83;;;28.40;;
16593;SDS011;8410;52.532;13.336;2024-03-02T10:17:04;28.70;;;23.70;;
16593;SDS011;8410;52.532;13.336;2024-03-02T10:19:32;28.07;;;24.80;;
16593;SDS011;8410;52.532;13.336;2024-03-02T10:22:02;29.50;;;26.30;;
16593;SDS011;8410;52.532;13.336;2024-03-02T10:24:35;35.80;;;29.77;;
16593;SDS011;8410;52.532;13.336;2024-03-02T10:27:08;34.33;;;29.90;;
16593;SDS011;8410;52.532;13.336;2024-03-02T10:29:39;32.93;;;27.30;;
16593;SDS011;8410;52.532;13.336;2024-03-02T10:32:12;34.80;;;29.97;;
16593;SDS011;8410;52.532;13.336;2024-03-02T10:34:39;32.70;;;29.10;;
16593;SDS011;8410;52.532;13.336;2024-03-02T10:37:08;32.47;;;28.53;;
16593;SDS011;8410;52.532;13.336;2024-03-02T10:39:37;35.57;;;28.63;;
16593;SDS011;8410;52.532;13.336;2024-03-02T10:42:06;32.97;;;28.50;;
16593;SDS011;8410;52.532;13.336;2024-03-02T10:44:34;30.37;;;24.03;;
16593;SDS011;8410;52.532;13.336;2024-03-02T10:47:03;30.70;;;26.97;;
16593;SDS011;8410;52.532;13.336;2024-03-02T10:49:33;31.87;;;27.53;;
16593;SDS011;8410;52.532;13.336;2024-03-02T10:52:01;34.60;;;28.50;;
16593;SDS011;8410;52.532;13.336;2024-03-02T10:54:29;32.57;;;26.87;;
16593;SDS011;8410;52.532;13.336;2024-03-02T10:57:03;31.50;;;26.87;;
16593;SDS011;8410;52.532;13.336;2024-03-02T10:59:32;31.47;;;27.00;;
16593;SDS011;8410;52.532;13.336;2024-03-02T11:02:01;31.23;;;25.83;;
16593;SDS011;8410;52.532;13.336;2024-03-02T11:04:32;29.93;;;25.27;;
16593;SDS011;8410;52.532;13.336;2024-03-02T11:07:02;30.57;;;26.00;;
16593;SDS011;8410;52.532;13.336;2024-03-02T11:09:33;29.50;;;25.77;;
16593;SDS011;8410;52.532;13.336;2024-03-02T11:12:02;27.70;;;24.20;;
16593;SDS011;8410;52.532;13.336;2024-03-02T11:14:33;28.13;;;24.70;;
16593;SDS011;8410;52.532;13.336;2024-03-02T11:17:04;29.47;;;26.37;;
16593;SDS011;8410;52.532;13.336;2024-03-02T11:19:33;30.30;;;25.27;;
16593;SDS011;8410;52.532;13.336;2024-03-02T11:22:03;28.40;;;25.27;;
16593;SDS011;8410;52.532;13.336;2024-03-02T11:24:32;30.80;;;24.97;;
16593;SDS011;8410;52.532;13.336;2024-03-02T11:27:04;26.80;;;23.43;;
16593;SDS011;8410;52.532;13.336;2024-03-02T11:29:43;28.30;;;25.23;;
16593;SDS011;8410;52.532;13.336;2024-03-02T11:32:15;29.17;;;24.03;;
16593;SDS011;8410;52.532;13.336;2024-03-02T11:34:46;24.80;;;22.17;;
16593;SDS011;8410;52.532;13.336;2024-03-02T11:37:16;26.07;;;22.83;;
16593;SDS011;8410;52.532;13.336;2024-03-02T11:39:44;25.23;;;22.60;;
16593;SDS011;8410;52.532;13.336;2024-03-02T11:42:12;24.43;;;21.80;;
16593;SDS011;8410;52.532;13.336;2024-03-02T11:44:42;27.30;;;22.77;;
16593;SDS011;8410;52.532;13.336;2024-03-02T11:47:12;26.53;;;22.47;;
16593;SDS011;8410;52.532;13.336;2024-03-02T11:49:44;25.00;;;20.93;;
16593;SDS011;8410;52.532;13.336;2024-03-02T11:52:16;27.13;;;20.93;;
16593;SDS011;8410;52.532;13.336;2024-03-02T11:54:45;28.03;;;22.60;;
16593;SDS011;8410;52.532;13.336;2024-03-02T11:57:15;28.13;;;24.60;;
16593;SDS011;8410;52.532;13.336;2024-03-02T11:59:43;25.63;;;21.73;;
16593;SDS011;8410;52.532;13.336;2024-03-02T12:02:15;27.43;;;21.87;;
16593;SDS011;8410;52.532;13.336;2024-03-02T12:04:46;25.73;;;22.53;;
16593;SDS011;8410;52.532;13.336;2024-03-02T12:07:18;26.43;;;23.60;;
16593;SDS011;8410;52.532;13.336;2024-03-02T12:09:47;28.03;;;22.97;;
16593;SDS011;8410;52.532;13.336;2024-03-02T12:12:14;27.53;;;23.20;;
16593;SDS011;8410;52.532;13.336;2024-03-02T12:14:49;25.07;;;22.37;;
16593;SDS011;8410;52.532;13.336;2024-03-02T12:17:17;25.00;;;21.73;;
16593;SDS011;8410;52.532;13.336;2024-03-02T12:19:46;24.77;;;21.40;;
16593;SDS011;8410;52.532;13.336;2024-03-02T12:22:14;23.67;;;21.07;;
16593;SDS011;8410;52.532;13.336;2024-03-02T12:24:42;25.97;;;22.57;;
16593;SDS011;8410;52.532;13.336;2024-03-02T12:27:11;25.60;;;21.87;;
16593;SDS011;8410;52.532;13.336;2024-03-02T12:29:40;26.43;;;21.10;;
16593;SDS011;8410;52.532;13.336;2024-03-02T12:32:08;24.60;;;21.93;;
16593;SDS011;8410;52.532;13.336;2024-03-02T12:34:35;25.87;;;21.43;;
16593;SDS011;8410;52.532;13.336;2024-03-02T12:37:06;25.10;;;22.50;;
16593;SDS011;8410;52.532;13.336;2024-03-02T12:39:34;28.13;;;22.80;;
16593;SDS011;8410;52.532;13.336;2024-03-02T12:42:02;28.90;;;22.83;;
16593;SDS011;8410;52.532;13.336;2024-03-02T12:44:30;27.07;;;21.40;;
16593;SDS011;8410;52.532;13.336;2024-03-02T12:46:57;24.97;;;22.27;;
16593;SDS011;8410;52.532;13.336;2024-03-02T12:49:27;27.00;;;21.63;;
16593;SDS011;8410;52.532;13.336;2024-03-02T12:51:57;24.50;;;21.90;;
16593;SDS011;8410;52.532;13.336;2024-03-02T12:54:25;31.67;;;25.53;;
16593;SDS011;8410;52.532;13.336;2024-03-02T12:56:53;27.03;;;22.63;;
16593;SDS011;8410;52.532;13.336;2024-03-02T12:59:22;27.07;;;23.10;;
16593;SDS011;8410;52.532;13.336;2024-03-02T13:01:53;26.90;;;22.97;;
16593;SDS011;8410;52.532;13.336;2024-03-02T13:04:21;27.27;;;24.37;;
16593;SDS011;8410;52.532;13.336;2024-03-02T13:06:50;27.53;;;23.87;;
16593;SDS011;8410;52.532;13.336;2024-03-02T13:09:19;27.97;;;22.57;;
16593;SDS011;8410;52.532;13.336;2024-03-02T13:11:48;27.63;;;23.83;;
16593;SDS011;8410;52.532;13.336;2024-03-02T13:14:17;27.17;;;22.23;;
16593;SDS011;8410;52.532;13.336;2024-03-02T13:16:45;25.97;;;21.80;;
16593;SDS011;8410;52.532;13.336;2024-03-02T13:19:13;23.47;;;20.13;;
16593;SDS011;8410;52.532;13.336;2024-03-02T13:21:41;27.40;;;22.67;;
16593;SDS011;8410;52.532;13.336;2024-03-02T13:24:09;23.53;;;20.23;;
16593;SDS011;8410;52.532;13.336;2024-03-02T13:26:36;25.53;;;21.77;;
16593;SDS011;8410;52.532;13.336;2024-03-02T13:29:05;27.10;;;22.67;;
16593;SDS011;8410;52.532;13.336;2024-03-02T13:31:34;23.73;;;21.23;;
16593;SDS011;8410;52.532;13.336;2024-03-02T13:34:01;23.77;;;20.50;;
16593;SDS011;8410;52.532;13.336;2024-03-02T13:36:29;22.80;;;19.90;;
16593;SDS011;8410;52.532;13.336;2024-03-02T13:38:57;21.87;;;19.23;;
16593;SDS011;8410;52.532;13.336;2024-03-02T13:41:24;22.53;;;20.23;;
16593;SDS011;8410;52.532;13.336;2024-03-02T13:43:52;20.20;;;18.00;;
16593;SDS011;8410;52.532;13.336;2024-03-02T13:46:21;21.50;;;18.67;;
16593;SDS011;8410;52.532;13.336;2024-03-02T13:48:49;20.03;;;17.87;;
16593;SDS011;8410;52.532;13.336;2024-03-02T13:51:17;21.93;;;18.80;;
16593;SDS011;8410;52.532;13.336;2024-03-02T13:53:45;22.77;;;20.03;;
16593;SDS011;8410;52.532;13.336;2024-03-02T13:56:12;23.70;;;19.10;;
16593;SDS011;8410;52.532;13.336;2024-03-02T13:58:40;21.73;;;18.73;;
16593;SDS011;8410;52.532;13.336;2024-03-02T14:01:09;21.93;;;17.93;;
16593;SDS011;8410;52.532;13.336;2024-03-02T14:03:38;20.60;;;18.27;;
16593;SDS011;8410;52.532;13.336;2024-03-02T14:06:06;24.60;;;19.97;;
16593;SDS011;8410;52.532;13.336;2024-03-02T14:08:33;25.50;;;22.30;;
16593;SDS011;8410;52.532;13.336;2024-03-02T14:11:02;22.03;;;18.97;;
16593;SDS011;8410;52.532;13.336;2024-03-02T14:13:30;22.03;;;18.33;;
16593;SDS011;8410;52.532;13.336;2024-03-02T14:15:57;18.70;;;16.37;;
16593;SDS011;8410;52.532;13.336;2024-03-02T14:18:24;19.40;;;17.30;;
16593;SDS011;8410;52.532;13.336;2024-03-02T14:20:53;20.60;;;18.27;;
16593;SDS011;8410;52.532;13.336;2024-03-02T14:23:20;25.47;;;19.70;;
16593;SDS011;8410;52.532;13.336;2024-03-02T14:25:48;18.27;;;16.30;;
16593;SDS011;8410;52.532;13.336;2024-03-02T14:28:15;18.50;;;15.47;;
16593;SDS011;8410;52.532;13.336;2024-03-02T14:31:04;18.53;;;14.60;;
16593;SDS011;8410;52.532;13.336;2024-03-02T14:33:32;17.53;;;14.83;;